METAR Data
IDs: Format: Raw Decoded Include TAF

Data at: 1930 UTC 14 Dec 2018

KARM 141915Z AUTO 30014KT 10SM OVC031 09/03 A3002 RMK AO2 T00940030
KARM 141855Z AUTO 29015G18KT 10SM OVC029 09/03 A3003 RMK AO2 T00920029
KARM 141835Z AUTO 30012KT 10SM OVC029 09/03 A3004 RMK AO2 T00900026
KARM 141815Z AUTO 29013G19KT 10SM OVC031 09/03 A3004 RMK AO2 T00900027
KARM 141755Z AUTO 30014G20KT 10SM OVC029 09/03 A3005 RMK AO2 T00900030 10095 20070
KARM 141735Z AUTO 30016G21KT 10SM OVC029 09/03 A3006 RMK AO2 T00900029
KARM 141715Z AUTO 30015G20KT 10SM OVC029 09/03 A3006 RMK AO2 T00900029
KARM 141655Z AUTO 30016KT 10SM BKN029 OVC036 09/03 A3006 RMK AO2 T00920027
KARM 141635Z AUTO 30014G18KT 10SM BKN029 OVC038 09/03 A3005 RMK AO2 T00930028
KARM 141615Z AUTO 29015KT 10SM BKN029 OVC038 09/02 A3004 RMK AO2 T00890024
KARM 141555Z AUTO 30011KT 10SM OVC027 09/03 A3003 RMK AO2 T00870027
KARM 141535Z AUTO 30014G21KT 10SM OVC027 09/03 A3002 RMK AO2 T00850026
KARM 141515Z AUTO 31017G23KT 10SM BKN027 BKN044 08/02 A3000 RMK AO2 T00840023
KARM 141455Z AUTO 29017G23KT 10SM SCT044 08/02 A2999 RMK AO2 LTG DSNT NE T00820023
KARM 141435Z AUTO 29016G22KT 10SM SCT030 08/02 A2998 RMK AO2 T00820024
KARM 141415Z AUTO 29012G17KT 10SM OVC030 08/03 A2998 RMK AO2 T00780028
KARM 141355Z AUTO 28012G16KT 10SM OVC030 08/03 A2998 RMK AO2 T00750030
KARM 141335Z AUTO 28013G19KT 10SM OVC030 07/03 A2997 RMK AO2 T00740030
KARM 141315Z AUTO 28014KT 10SM SCT020 OVC028 07/03 A2996 RMK AO2 T00720032
KARM 141255Z AUTO 28012KT 10SM SCT020 OVC028 07/04 A2996 RMK AO2 LTG DSNT N T00700035
KARM 141235Z AUTO 28014G17KT 10SM BKN024 OVC030 07/04 A2996 RMK AO2 T00700037
KARM 141215Z AUTO 29014G19KT 10SM BKN022 OVC027 07/04 A2996 RMK AO2 LTG DSNT N T00710035
KARM 141155Z AUTO 28011G16KT 10SM OVC024 08/03 A2995 RMK AO2 T00770033 10095 20075
KARM 141135Z AUTO 28013G18KT 10SM OVC024 08/03 A2994 RMK AO2 T00750033
KARM 141115Z AUTO 28014G19KT 10SM OVC028 08/03 A2993 RMK AO2 T00810030
KARM 141055Z AUTO 29012G16KT 10SM OVC028 08/03 A2992 RMK AO2 T00820029
KARM 141035Z AUTO 28010KT 10SM OVC028 08/03 A2991 RMK AO2 T00830028
KARM 141015Z AUTO 28011G16KT 10SM OVC030 09/03 A2991 RMK AO2 T00850026
KARM 140955Z AUTO 29013G18KT 10SM OVC028 09/03 A2990 RMK AO2 T00860026
KARM 140935Z AUTO 29010KT 10SM OVC028 09/03 A2990 RMK AO2 T00850027
KARM 140915Z AUTO 29014G20KT 10SM BKN032 BKN040 09/03 A2990 RMK AO2 T00850025
KARM 140855Z AUTO 28014G22KT 10SM BKN034 BKN040 08/03 A2990 RMK AO2 LTG DSNT N T00830026
KARM 140835Z AUTO 28012G19KT 10SM OVC034 09/03 A2989 RMK AO2 T00900026
KARM 140815Z AUTO 28012G17KT 10SM OVC034 09/03 A2989 RMK AO2 T00900026
KARM 140755Z AUTO 28012G17KT 10SM OVC034 09/03 A2990 RMK AO2 T00920025
KARM 140735Z AUTO 28010G15KT 10SM OVC036 09/03 A2990 RMK AO2 T00930025
KARM 140715Z AUTO 28014KT 10SM OVC036 10/02 A2990 RMK AO2 T00950023
KARM 140655Z AUTO 28010KT 10SM OVC039 10/02 A2990 RMK AO2 T00950023
KARM 140635Z AUTO 28013G19KT 10SM OVC041 10/02 A2990 RMK AO2 T00950022
KARM 140615Z AUTO 28012KT 10SM OVC041 09/02 A2990 RMK AO2 T00930024
KARM 140555Z AUTO 28012G17KT 10SM OVC041 10/02 A2990 RMK AO2 T00950020 10178 20093 402340093
KARM 140535Z AUTO 28016G21KT 10SM OVC041 09/02 A2991 RMK AO2 T00940020
KARM 140515Z AUTO 28011KT 10SM BKN041 10/02 A2990 RMK AO2 T00960023
KARM 140455Z AUTO 27011G16KT 10SM SCT041 10/02 A2990 RMK AO2 T00950020
KARM 140435Z AUTO 27016G22KT 10SM CLR 10/02 A2990 RMK AO2 T00960019
KARM 140415Z AUTO 28013G18KT 10SM CLR 10/02 A2990 RMK AO2 T00970024
KARM 140355Z AUTO 28010KT 10SM CLR 10/03 A2989 RMK AO2 T00980027
KARM 140335Z AUTO 28015G22KT 10SM CLR 11/02 A2988 RMK AO2 T01050022
KARM 140315Z AUTO 28013G18KT 10SM CLR 11/02 A2988 RMK AO2 T01060023
KARM 140255Z AUTO 28013G17KT 10SM CLR 11/02 A2988 RMK AO2 T01090024
KARM 140235Z AUTO 28015G19KT 10SM CLR 11/02 A2987 RMK AO2 T01110024
KARM 140215Z AUTO 28018G26KT 10SM CLR 12/02 A2986 RMK AO2 T01180022
KARM 140155Z AUTO 28022G28KT 10SM CLR 13/03 A2984 RMK AO2 T01280028
KARM 140135Z AUTO 28018G22KT 10SM CLR 14/04 A2983 RMK AO2 T01440037
KARM 140115Z AUTO 25018G24KT 10SM CLR 16/02 A2981 RMK AO2 T01600021
KARM 140055Z AUTO 23008KT 10SM CLR 16/03 A2980 RMK AO2 T01600033
KARM 140035Z AUTO 25008KT 10SM CLR 17/02 A2979 RMK AO2 T01700023
KARM 140015Z AUTO 25010KT 10SM CLR 17/06 A2978 RMK AO2 LTG DSNT E T01710060
KARM 132355Z AUTO 25005KT 10SM SCT110 18/07 A2977 RMK AO2 T01790072 10234 20179
KARM 132335Z AUTO 27007KT 10SM OVC110 19/06 A2977 RMK AO2 T01870063
KARM 132315Z AUTO 27008KT 10SM BKN110 19/07 A2977 RMK AO2 T01930068
KARM 132255Z AUTO 27010KT 10SM BKN110 20/06 A2976 RMK AO2 T02000056
KARM 132235Z AUTO 28011KT 10SM SCT060 BKN110 21/06 A2975 RMK AO2 T02100056
KARM 132215Z AUTO 27008KT 10SM SCT060 OVC100 22/10 A2974 RMK AO2 T02150097
KARM 132155Z AUTO 28008KT 10SM BKN100 22/09 A2974 RMK AO2 T02160090
KARM 132135Z AUTO 28010KT 10SM CLR 23/08 A2973 RMK AO2 T02270082
KARM 132115Z AUTO 27009KT 10SM CLR 23/09 A2973 RMK AO2 T02300089
KARM 132055Z AUTO 27012KT 10SM CLR 23/09 A2973 RMK AO2 LTG DSNT NW T02300092
KARM 132035Z AUTO 27010G17KT 10SM SCT050 23/10 A2973 RMK AO2 T02260096
KARM 132015Z AUTO 28011KT 10SM SCT050 23/10 A2972 RMK AO2 T02330097
KARM 131955Z AUTO 27012KT 10SM SCT044 SCT050 23/11 A2973 RMK AO2 T02270110
KARM 131935Z AUTO 25013KT 10SM SCT042 23/13 A2973 RMK AO2 LTG DSNT NW T02310125
KARM 131915Z AUTO 26009KT 10SM SCT043 23/13 A2972 RMK AO2 T02300126
KARM 131855Z AUTO 24007KT 10SM CLR 23/13 A2973 RMK AO2 T02270133
KARM 131835Z AUTO 24013G16KT 10SM CLR 23/14 A2974 RMK AO2 T02260141
KARM 131815Z AUTO 23008KT 10SM CLR 22/15 A2975 RMK AO2 T02200145
KARM 131755Z AUTO 22010KT 10SM CLR 22/15 A2976 RMK AO2 T02150148 10215 20166
KARM 131735Z AUTO 23011KT 10SM CLR 21/15 A2977 RMK AO2 T02110148
KARM 131715Z AUTO 23008KT 10SM CLR 21/15 A2978 RMK AO2 T02080151
KARM 131655Z AUTO 22009KT 10SM CLR 20/15 A2980 RMK AO2 LTG DSNT N T02040153
KARM 131635Z AUTO 21009KT 10SM SCT110 20/15 A2981 RMK AO2 T02000149
KARM 131615Z AUTO 22008KT 10SM OVC110 19/15 A2981 RMK AO2 T01930145
KARM 131555Z AUTO 23007KT 10SM BKN120 20/15 A2980 RMK AO2 T01950150
KARM 131535Z AUTO 23008KT 10SM SCT120 19/15 A2981 RMK AO2 T01910147
KARM 131515Z AUTO 22005KT 10SM CLR 19/15 A2979 RMK AO2 T01880148
KARM 131455Z AUTO 25006KT 10SM CLR 19/15 A2979 RMK AO2 T01870149
KARM 131435Z AUTO 26004KT 10SM CLR 18/16 A2978 RMK AO2 T01820157
KARM 131415Z AUTO 21003KT 10SM SCT110 18/16 A2978 RMK AO2 T01760160
KARM 131355Z AUTO 20003KT 10SM CLR 17/16 A2978 RMK AO2 T01680157
KARM 131335Z AUTO 00000KT 10SM CLR 17/16 A2977 RMK AO2 T01700160
KARM 131315Z AUTO 00000KT 7SM SCT110 17/16 A2977 RMK AO2 T01690157
KARM 131255Z AUTO 00000KT 10SM SCT019 BKN110 17/16 A2975 RMK AO2 T01720160
KARM 131235Z AUTO 00000KT 10SM BKN019 18/16 A2975 RMK AO2 T01770162
KARM 131215Z AUTO 00000KT 10SM OVC019 18/17 A2974 RMK AO2 LTG DSNT NE T01800165
KARM 131155Z AUTO 21003KT 10SM SCT010 OVC019 18/17 A2975 RMK AO2 LTG DSNT NE AND E 60159 70159 T01800167 10190 20175
KARM 131135Z AUTO 23003KT 7SM OVC008 18/17 A2975 RMK AO2 T01800167
KARM 131115Z AUTO 19003KT 7SM OVC006 18/17 A2975 RMK AO2 LTG DSNT NE AND E T01800169
KARM 131055Z AUTO 18006KT 7SM OVC006 18/17 A2974 RMK AO2 LTG DSNT NE T01800169
KARM 131035Z AUTO 14013KT 7SM BKN008 OVC013 18/17 A2969 RMK AO2 LTG DSNT N THRU SE T01810170
KARM 131015Z AUTO 14008KT 10SM BKN008 OVC014 18/17 A2972 RMK AO2 LTG DSNT NE AND SE T01810170
KARM 130955Z AUTO 14006KT 10SM BKN013 BKN025 OVC095 18/17 A2975 RMK AO2 LTG DSNT NE AND SE P0115 T01810170
KARM 130935Z AUTO 00000KT 4SM TSRA SCT007 BKN027 OVC080 18/16 A2976 RMK AO2 LTG DSNT ALQDS P0115 T01750161
KARM 130915Z AUTO 24009KT 3/4SM /VCTSRA OVC005 18/17 A2977 RMK AO2 LTG DSNT N THRU SE P0080 T01830170
KARM 130855Z AUTO 17008KT 3SM +TSRA SCT010 BKN027 OVC055 19/17 A2977 RMK AO2 LTG DSNT ALQDS P0042 60042 T01870169
KARM 130835Z AUTO 14013KT 2 1/2SM /VCTSRA SCT020 BKN031 OVC040 19/17 A2977 RMK AO2 VIS 1 1/2V3 LTG DSNT ALQDS P0023 T01860170
KARM 130815Z AUTO 16013KT 10SM VCTSRA BKN018 BKN024 OVC032 19/17 A2978 RMK AO2 LTG DSNT ALQDS T01870165
KARM 130755Z AUTO 14010KT 10SM VCTS BKN020 OVC025 19/16 A2979 RMK AO2 LTG DSNT SW THRU N T01900163
KARM 130735Z AUTO 14009KT 10SM OVC027 19/16 A2981 RMK AO2 LTG DSNT SW THRU N T01880161